createdAt,value
2022-12-01T00:01:47.218Z,3.90
2022-12-01T00:06:49.081Z,4.10
2022-12-01T00:11:50.837Z,4.20
2022-12-01T00:16:52.668Z,3.70
2022-12-01T00:21:54.569Z,4.10
2022-12-01T00:26:56.276Z,4.10
2022-12-01T00:31:58.030Z,4.10
2022-12-01T00:36:59.957Z,4.00
2022-12-01T00:42:01.793Z,3.90
2022-12-01T00:47:03.607Z,3.80
2022-12-01T00:52:05.534Z,3.70
2022-12-01T00:57:07.987Z,3.70
2022-12-01T01:02:09.700Z,3.60
2022-12-01T01:07:11.415Z,4.10
2022-12-01T01:12:13.218Z,3.80
2022-12-01T01:17:14.932Z,3.70
2022-12-01T01:22:16.654Z,3.50
2022-12-01T01:27:18.350Z,3.60
2022-12-01T01:32:19.983Z,3.80
2022-12-01T01:37:21.685Z,3.80
2022-12-01T01:42:23.432Z,3.90
2022-12-01T01:47:35.930Z,3.70
2022-12-01T01:52:43.132Z,4.00
2022-12-01T01:57:45.849Z,3.90
2022-12-01T02:02:50.276Z,3.80
2022-12-01T02:07:53.988Z,3.20
2022-12-01T02:13:11.546Z,3.00
2022-12-01T02:18:37.137Z,3.20
2022-12-01T02:23:53.655Z,3.20
2022-12-01T02:29:10.072Z,3.00
2022-12-01T02:34:25.646Z,3.00
2022-12-01T02:39:47.753Z,2.90
2022-12-01T02:44:50.146Z,2.70
2022-12-01T02:49:54.512Z,2.60
2022-12-01T02:54:56.804Z,2.40
2022-12-01T02:59:59.971Z,2.20
2022-12-01T03:05:10.985Z,2.10
2022-12-01T03:10:23.656Z,2.40
2022-12-01T03:15:50.648Z,2.10
2022-12-01T03:21:24.750Z,1.90
2022-12-01T03:26:30.144Z,1.90
2022-12-01T03:31:35.031Z,1.70
2022-12-01T03:36:59.845Z,1.80
2022-12-01T03:42:12.383Z,1.30
2022-12-01T03:47:17.679Z,1.40
2022-12-01T03:52:56.847Z,1.30
2022-12-01T03:58:11.278Z,1.60
2022-12-01T04:03:19.003Z,1.50
2022-12-01T04:08:20.882Z,1.50
2022-12-01T04:13:22.678Z,1.50
2022-12-01T04:18:24.401Z,1.50
2022-12-01T04:23:26.107Z,1.70
2022-12-01T04:28:28.014Z,1.50
2022-12-01T04:33:30.053Z,1.40
2022-12-01T04:38:31.804Z,1.70
2022-12-01T04:43:33.475Z,1.30
2022-12-01T04:48:36.323Z,1.00
2022-12-01T04:53:38.110Z,0.90
2022-12-01T04:58:40.077Z,0.70
2022-12-01T05:03:44.858Z,0.60
2022-12-01T05:08:47.112Z,0.80
2022-12-01T05:13:49.875Z,0.80
2022-12-01T05:18:54.050Z,0.60
2022-12-01T05:23:55.768Z,0.70
2022-12-01T05:28:57.487Z,0.80
2022-12-01T05:33:59.220Z,0.70
2022-12-01T05:39:01.055Z,0.90
2022-12-01T05:44:02.929Z,1.00
2022-12-01T05:49:05.519Z,0.60
2022-12-01T05:54:07.245Z,0.60
2022-12-01T05:59:08.930Z,0.50
2022-12-01T06:04:10.698Z,0.30
2022-12-01T06:09:12.469Z,0.30
2022-12-01T06:14:14.226Z,0.40
2022-12-01T06:19:15.934Z,0.40
2022-12-01T06:24:17.796Z,0.60
2022-12-01T06:29:19.540Z,0.60
2022-12-01T06:34:21.356Z,0.30
2022-12-01T06:39:23.069Z,0.40
2022-12-01T06:44:24.908Z,0.20
2022-12-01T06:49:26.737Z,0.40
2022-12-01T06:54:28.544Z,0.40
2022-12-01T06:59:30.272Z,0.30
2022-12-01T07:04:32.344Z,0.50
2022-12-01T07:09:34.469Z,0.70
2022-12-01T07:14:36.365Z,0.80
2022-12-01T07:19:38.255Z,0.80
2022-12-01T07:24:39.987Z,1.00
2022-12-01T07:29:41.717Z,1.10
2022-12-01T07:34:43.445Z,0.90
2022-12-01T07:39:45.287Z,1.00
2022-12-01T07:44:47.017Z,0.90
2022-12-01T07:49:49.058Z,1.00
2022-12-01T07:54:51.054Z,1.20
2022-12-01T07:59:52.804Z,1.50
2022-12-01T08:04:54.556Z,1.50
2022-12-01T08:09:56.300Z,1.30
2022-12-01T08:14:57.981Z,1.60
2022-12-01T08:19:59.718Z,1.60
2022-12-01T08:25:01.453Z,1.50
2022-12-01T08:30:03.449Z,1.70
2022-12-01T08:35:05.655Z,1.70
2022-12-01T08:40:08.199Z,1.70
2022-12-01T08:45:10.386Z,1.80
2022-12-01T08:50:12.394Z,1.60
2022-12-01T08:55:14.214Z,1.80
2022-12-01T09:00:16.390Z,2.40
2022-12-01T09:05:18.105Z,2.40
2022-12-01T09:10:19.850Z,2.70
2022-12-01T09:15:21.538Z,2.50
2022-12-01T09:20:23.382Z,3.10
2022-12-01T09:25:25.193Z,3.00
2022-12-01T09:30:26.919Z,3.10
2022-12-01T09:35:31.055Z,3.20
2022-12-01T09:40:39.078Z,3.10
2022-12-01T09:45:43.610Z,3.10
2022-12-01T09:50:45.311Z,3.30
2022-12-01T09:55:48.240Z,3.50
2022-12-01T10:00:51.066Z,3.50
2022-12-01T10:06:26.901Z,3.60
2022-12-01T10:11:33.508Z,3.30
2022-12-01T10:16:42.747Z,3.30
2022-12-01T10:22:21.659Z,3.10
2022-12-01T10:27:50.464Z,3.10
2022-12-01T10:33:20.934Z,3.30
2022-12-01T10:38:26.709Z,3.10
2022-12-01T10:43:40.932Z,3.50
2022-12-01T10:49:04.108Z,3.60
2022-12-01T10:54:09.079Z,3.40
2022-12-01T10:59:25.823Z,3.60
2022-12-01T11:04:43.154Z,3.90
2022-12-01T11:09:47.014Z,3.90
2022-12-01T11:14:54.205Z,4.10
2022-12-01T11:19:56.238Z,4.30
2022-12-01T11:25:03.773Z,4.60
2022-12-01T11:30:19.816Z,4.50
2022-12-01T11:35:24.502Z,4.90
2022-12-01T11:40:28.933Z,4.90
2022-12-01T11:45:39.523Z,5.60
2022-12-01T11:50:44.414Z,5.30
2022-12-01T11:55:46.289Z,5.30
2022-12-01T12:00:55.573Z,5.50
2022-12-01T12:06:39.411Z,5.60
2022-12-01T12:12:12.145Z,5.70
2022-12-01T12:17:13.766Z,5.90
2022-12-01T12:22:56.036Z,6.10
2022-12-01T12:28:23.020Z,6.60
2022-12-01T12:33:54.693Z,6.60
2022-12-01T12:39:05.238Z,6.40
2022-12-01T12:44:24.566Z,6.40
2022-12-01T12:49:56.252Z,6.30
2022-12-01T12:55:03.895Z,6.70
2022-12-01T13:00:20.444Z,6.60
2022-12-01T13:05:45.076Z,6.70
2022-12-01T13:10:48.746Z,6.50
2022-12-01T13:15:53.313Z,6.50
2022-12-01T13:20:57.355Z,6.40
2022-12-01T13:26:01.399Z,6.40
2022-12-01T13:31:12.808Z,6.50
2022-12-01T13:36:45.206Z,6.60
2022-12-01T13:41:40.413Z,6.60
2022-12-01T13:46:42.446Z,6.60
2022-12-01T13:52:21.414Z,6.40
2022-12-01T13:57:27.778Z,6.30
2022-12-01T14:02:36.636Z,6.20
2022-12-01T14:07:38.720Z,6.30
2022-12-01T14:12:45.518Z,6.10
2022-12-01T14:17:47.710Z,6.10
2022-12-01T14:23:15.988Z,6.00
2022-12-01T14:28:37.696Z,6.00
2022-12-01T14:33:39.395Z,5.90
2022-12-01T14:38:42.024Z,5.80
2022-12-01T14:43:46.150Z,5.70
2022-12-01T14:48:48.304Z,5.80
2022-12-01T14:53:52.054Z,5.50
2022-12-01T14:59:01.919Z,5.50
2022-12-01T15:04:05.957Z,5.40
2022-12-01T15:09:33.437Z,5.30
2022-12-01T15:14:48.204Z,5.30
2022-12-01T15:19:50.553Z,5.30
2022-12-01T15:24:52.683Z,5.20
2022-12-01T15:29:55.918Z,5.20
2022-12-01T15:34:58.933Z,5.10
2022-12-01T15:40:47.806Z,5.00
2022-12-01T15:45:29.268Z,5.10
2022-12-01T15:50:34.549Z,5.00
2022-12-01T15:55:38.788Z,4.90
2022-12-01T16:00:40.675Z,5.10
2022-12-01T16:05:44.486Z,5.10
2022-12-01T16:10:46.502Z,4.90
2022-12-01T16:15:48.190Z,5.10
2022-12-01T16:20:50.437Z,5.00
2022-12-01T16:25:52.282Z,5.00
2022-12-01T16:30:55.762Z,5.00
2022-12-01T16:36:03.551Z,4.90
2022-12-01T16:41:26.524Z,4.80
2022-12-01T16:46:28.290Z,4.90
2022-12-01T16:51:42.490Z,5.00
2022-12-01T16:56:51.785Z,5.00
2022-12-01T17:01:53.689Z,5.10
2022-12-01T17:06:55.492Z,5.00
2022-12-01T17:11:57.183Z,5.10
2022-12-01T17:16:58.850Z,5.00
2022-12-01T17:22:00.558Z,4.90
2022-12-01T17:27:02.249Z,4.90
2022-12-01T17:32:04.045Z,4.80
2022-12-01T17:37:05.779Z,5.00
2022-12-01T17:42:07.497Z,5.00
2022-12-01T17:47:09.271Z,5.10
2022-12-01T17:52:11.093Z,5.00
2022-12-01T17:57:12.845Z,4.90
2022-12-01T18:02:14.639Z,4.80
2022-12-01T18:07:16.428Z,4.90
2022-12-01T18:12:18.124Z,5.20
2022-12-01T18:17:19.835Z,5.30
2022-12-01T18:22:21.596Z,5.30
2022-12-01T18:27:23.309Z,5.30
2022-12-01T18:32:25.201Z,5.20
2022-12-01T18:37:26.911Z,5.10
2022-12-01T18:42:28.632Z,5.30
2022-12-01T18:47:30.459Z,5.40
2022-12-01T18:52:35.824Z,5.00
2022-12-01T18:57:37.728Z,4.80
2022-12-01T19:02:39.494Z,5.00
2022-12-01T19:07:43.115Z,4.80
2022-12-01T19:12:44.893Z,5.00
2022-12-01T19:17:46.582Z,5.00
2022-12-01T19:22:48.349Z,5.00
2022-12-01T19:27:50.114Z,4.90
2022-12-01T19:32:51.767Z,5.00
2022-12-01T19:37:53.572Z,5.20
2022-12-01T19:42:55.893Z,4.90
2022-12-01T19:47:57.862Z,5.10
2022-12-01T19:52:59.643Z,4.90
2022-12-01T19:58:01.323Z,4.90
2022-12-01T20:03:03.034Z,5.00
2022-12-01T20:08:04.802Z,5.10
2022-12-01T20:13:06.858Z,4.90
2022-12-01T20:18:08.610Z,4.90
2022-12-01T20:23:10.314Z,4.90
2022-12-01T20:28:11.946Z,4.80
2022-12-01T20:33:14.048Z,4.70
2022-12-01T20:38:15.976Z,4.70
2022-12-01T20:43:18.338Z,4.80
2022-12-01T20:48:20.448Z,4.80
2022-12-01T20:53:22.746Z,4.60
2022-12-01T20:58:24.501Z,4.50
2022-12-01T21:03:26.229Z,4.60
2022-12-01T21:08:27.969Z,4.80
2022-12-01T21:13:31.216Z,4.80
2022-12-01T21:18:45.034Z,4.80
2022-12-01T21:23:48.951Z,4.90
2022-12-01T21:28:50.684Z,4.80
2022-12-01T21:33:52.702Z,4.80
2022-12-01T21:39:00.992Z,4.80
2022-12-01T21:44:12.507Z,4.70
2022-12-01T21:49:19.202Z,4.70
2022-12-01T21:54:22.013Z,4.50
2022-12-01T21:59:24.458Z,4.60
2022-12-01T22:04:30.452Z,4.60
2022-12-01T22:09:35.284Z,4.40
2022-12-01T22:14:36.943Z,4.40
2022-12-01T22:19:40.884Z,4.40
2022-12-01T22:24:43.761Z,4.00
2022-12-01T22:29:47.463Z,4.30
2022-12-01T22:34:56.209Z,4.40
2022-12-01T22:39:57.937Z,4.20
2022-12-01T22:45:25.266Z,4.20
2022-12-01T22:50:32.877Z,4.30
2022-12-01T22:55:34.632Z,4.40
2022-12-01T23:00:36.382Z,4.20
2022-12-01T23:05:38.212Z,4.40
2022-12-01T23:10:40.874Z,4.60
2022-12-01T23:15:48.243Z,4.40
2022-12-01T23:20:54.815Z,4.40
2022-12-01T23:25:57.038Z,4.50
2022-12-01T23:30:59.818Z,4.60
2022-12-01T23:36:11.590Z,4.80
2022-12-01T23:41:26.118Z,4.80
2022-12-01T23:46:28.582Z,4.50
2022-12-01T23:51:35.895Z,4.90
2022-12-01T23:56:38.519Z,4.80
